createdAt,value
2023-05-19T00:00:29.164Z,4.20
2023-05-19T00:03:22.138Z,3.70
2023-05-19T00:05:54.003Z,4.20
2023-05-19T00:08:25.015Z,3.60
2023-05-19T00:10:54.231Z,4.10
2023-05-19T00:13:24.031Z,3.40
2023-05-19T00:15:53.436Z,3.90
2023-05-19T00:18:23.629Z,4.00
2023-05-19T00:20:53.068Z,3.70
2023-05-19T00:23:21.830Z,3.40
2023-05-19T00:25:50.417Z,3.50
2023-05-19T00:28:19.329Z,3.60
2023-05-19T00:30:48.608Z,3.60
2023-05-19T00:33:17.624Z,3.90
2023-05-19T00:35:46.402Z,4.20
2023-05-19T00:38:15.287Z,4.10
2023-05-19T00:40:44.071Z,4.00
2023-05-19T00:43:14.009Z,3.80
2023-05-19T00:45:42.882Z,3.60
2023-05-19T00:48:12.708Z,4.20
2023-05-19T00:50:42.005Z,4.20
2023-05-19T00:53:10.888Z,4.20
2023-05-19T00:55:41.538Z,4.60
2023-05-19T00:58:11.559Z,4.00
2023-05-19T01:00:41.087Z,3.90
2023-05-19T01:03:13.743Z,4.60
2023-05-19T01:05:45.170Z,4.20
2023-05-19T01:08:14.287Z,4.70
2023-05-19T01:10:43.246Z,4.70
2023-05-19T01:13:12.569Z,4.30
2023-05-19T01:16:08.387Z,3.90
2023-05-19T01:18:48.340Z,4.20
2023-05-19T01:21:39.476Z,4.10
2023-05-19T01:24:18.574Z,3.90
2023-05-19T01:27:04.651Z,4.10
2023-05-19T01:29:55.070Z,4.30
2023-05-19T01:32:24.818Z,4.00
2023-05-19T01:34:54.396Z,4.10
2023-05-19T01:37:24.513Z,4.40
2023-05-19T01:39:54.008Z,4.80
2023-05-19T01:42:23.092Z,4.30
2023-05-19T01:44:52.415Z,4.20
2023-05-19T01:47:21.399Z,3.90
2023-05-19T01:49:50.371Z,4.60
2023-05-19T01:52:19.178Z,4.00
2023-05-19T01:54:47.983Z,4.30
2023-05-19T01:57:23.827Z,4.40
2023-05-19T02:00:25.473Z,4.40
2023-05-19T02:03:16.477Z,4.00
2023-05-19T02:06:07.284Z,4.00
2023-05-19T02:08:59.540Z,3.70
2023-05-19T02:11:43.464Z,4.10
2023-05-19T02:14:23.514Z,5.10
2023-05-19T02:16:53.239Z,4.20
2023-05-19T02:19:33.643Z,4.00
2023-05-19T02:22:03.667Z,4.50
2023-05-19T02:24:32.516Z,4.20
2023-05-19T02:27:01.645Z,4.60
2023-05-19T02:29:30.791Z,4.20
2023-05-19T02:32:01.395Z,4.10
2023-05-19T02:34:30.313Z,3.60
2023-05-19T02:36:59.104Z,4.10
2023-05-19T02:39:29.947Z,3.90
2023-05-19T02:41:58.953Z,3.00
2023-05-19T02:44:28.642Z,3.90
2023-05-19T02:46:58.958Z,3.60
2023-05-19T02:49:31.127Z,4.00
2023-05-19T02:52:00.143Z,4.10
2023-05-19T02:54:33.977Z,3.90
2023-05-19T02:57:03.011Z,3.10
2023-05-19T02:59:32.745Z,3.90
2023-05-19T03:02:02.433Z,3.70
2023-05-19T03:04:31.853Z,3.90
2023-05-19T03:07:00.772Z,4.00
2023-05-19T03:09:29.619Z,3.90
2023-05-19T03:12:04.207Z,4.10
2023-05-19T03:14:34.699Z,4.20
2023-05-19T03:17:04.924Z,4.00
2023-05-19T03:19:33.913Z,3.90
2023-05-19T03:22:03.000Z,4.00
2023-05-19T03:24:33.315Z,3.60
2023-05-19T03:27:03.131Z,3.50
2023-05-19T03:29:33.257Z,3.80
2023-05-19T03:32:02.373Z,3.40
2023-05-19T03:34:33.299Z,4.40
2023-05-19T03:37:02.160Z,3.40
2023-05-19T03:39:31.277Z,3.70
2023-05-19T03:42:00.267Z,3.90
2023-05-19T03:44:29.343Z,3.60
2023-05-19T03:46:58.366Z,3.90
2023-05-19T03:49:46.272Z,3.10
2023-05-19T03:52:45.899Z,3.50
2023-05-19T03:55:24.741Z,3.70
2023-05-19T03:57:53.618Z,4.10
2023-05-19T04:00:22.918Z,3.50
2023-05-19T04:02:52.865Z,3.40
2023-05-19T04:05:22.016Z,3.70
2023-05-19T04:07:50.816Z,4.00
2023-05-19T04:10:20.809Z,3.50
2023-05-19T04:12:50.282Z,2.80
2023-05-19T04:15:19.309Z,3.60
2023-05-19T04:17:48.166Z,3.10
2023-05-19T04:20:18.337Z,3.60
2023-05-19T04:22:47.222Z,4.00
2023-05-19T04:25:17.135Z,2.90
2023-05-19T04:27:46.561Z,3.30
2023-05-19T04:30:22.558Z,3.20
2023-05-19T04:32:52.840Z,3.50
2023-05-19T04:35:23.356Z,4.20
2023-05-19T04:37:55.018Z,3.80
2023-05-19T04:40:28.077Z,3.80
2023-05-19T04:42:58.526Z,3.80
2023-05-19T04:45:27.521Z,3.70
2023-05-19T04:47:59.017Z,4.20
2023-05-19T04:50:29.302Z,3.30
2023-05-19T04:52:59.912Z,4.00
2023-05-19T04:55:29.316Z,3.60
2023-05-19T04:57:58.137Z,4.20
2023-05-19T05:00:27.171Z,3.50
2023-05-19T05:03:00.997Z,3.60
2023-05-19T05:05:31.955Z,4.00
2023-05-19T05:08:00.932Z,3.50
2023-05-19T05:10:33.447Z,3.40
2023-05-19T05:13:02.706Z,3.00
2023-05-19T05:15:32.612Z,3.60
2023-05-19T05:18:03.428Z,4.10
2023-05-19T05:20:33.164Z,3.50
2023-05-19T05:23:02.929Z,3.30
2023-05-19T05:25:33.125Z,3.20
2023-05-19T05:28:05.773Z,3.90
2023-05-19T05:30:36.774Z,3.10
2023-05-19T05:33:06.815Z,3.40
2023-05-19T05:35:40.278Z,2.90
2023-05-19T05:38:12.100Z,2.80
2023-05-19T05:40:41.490Z,2.80
2023-05-19T05:43:10.675Z,3.10
2023-05-19T05:45:44.755Z,2.80
2023-05-19T05:48:14.610Z,2.90
2023-05-19T05:50:45.412Z,3.10
2023-05-19T05:53:19.950Z,2.60
2023-05-19T05:55:50.613Z,2.80
2023-05-19T05:58:21.836Z,3.90
2023-05-19T06:00:51.974Z,3.30
2023-05-19T06:03:27.149Z,3.20
2023-05-19T06:05:57.468Z,3.30
2023-05-19T06:08:26.638Z,3.20
2023-05-19T06:10:56.141Z,3.00
2023-05-19T06:13:26.353Z,2.70
2023-05-19T06:15:55.782Z,3.10
2023-05-19T06:18:33.662Z,2.60
2023-05-19T06:21:03.978Z,2.60
2023-05-19T06:23:33.385Z,2.90
2023-05-19T06:26:02.896Z,3.00
2023-05-19T06:28:32.411Z,3.00
2023-05-19T06:31:02.167Z,3.00
2023-05-19T06:33:43.828Z,3.40
2023-05-19T06:36:12.690Z,3.30
2023-05-19T06:38:42.525Z,3.50
2023-05-19T06:41:11.786Z,3.90
2023-05-19T06:43:40.701Z,3.70
2023-05-19T06:46:13.760Z,3.60
2023-05-19T06:48:42.578Z,3.70
2023-05-19T06:51:12.697Z,3.60
2023-05-19T06:53:42.099Z,3.30
2023-05-19T06:56:11.497Z,3.70
2023-05-19T06:58:42.053Z,3.20
2023-05-19T07:01:11.327Z,3.60
2023-05-19T07:03:44.909Z,3.80
2023-05-19T07:06:13.939Z,4.40
2023-05-19T07:08:43.425Z,4.50
2023-05-19T07:11:13.941Z,4.30
2023-05-19T07:13:43.049Z,4.30
2023-05-19T07:16:17.423Z,4.00
2023-05-19T07:18:47.010Z,4.20
2023-05-19T07:21:16.172Z,4.80
2023-05-19T07:23:45.377Z,3.40
2023-05-19T07:26:14.539Z,4.10
2023-05-19T07:28:44.289Z,2.90
2023-05-19T07:31:15.232Z,2.90
2023-05-19T07:33:44.193Z,3.60
2023-05-19T07:36:13.495Z,3.20
2023-05-19T07:38:42.603Z,3.30
2023-05-19T07:41:12.324Z,4.10
2023-05-19T07:43:41.320Z,3.00
2023-05-19T07:46:10.673Z,3.40
2023-05-19T07:48:39.619Z,2.90
2023-05-19T07:51:11.038Z,2.80
2023-05-19T07:53:41.356Z,3.20
2023-05-19T07:56:10.377Z,2.50
2023-05-19T07:58:39.494Z,3.10
2023-05-19T08:01:08.874Z,2.60
2023-05-19T08:03:39.181Z,2.20
2023-05-19T08:06:08.691Z,2.20
2023-05-19T08:08:38.147Z,2.40
2023-05-19T08:11:07.588Z,2.50
2023-05-19T08:13:37.312Z,1.70
2023-05-19T08:16:07.088Z,2.40
2023-05-19T08:18:35.951Z,2.30
2023-05-19T08:21:05.125Z,2.40
2023-05-19T08:23:34.226Z,2.10
2023-05-19T08:26:03.618Z,2.10
2023-05-19T08:28:32.690Z,2.20
2023-05-19T08:31:02.275Z,2.30
2023-05-19T08:33:31.299Z,2.30
2023-05-19T08:36:00.900Z,2.20
2023-05-19T08:38:30.013Z,2.30
2023-05-19T08:40:59.391Z,2.40
2023-05-19T08:43:28.919Z,2.20
2023-05-19T08:46:00.555Z,2.10
2023-05-19T08:48:31.176Z,1.80
2023-05-19T08:51:22.297Z,1.50
2023-05-19T08:53:52.415Z,1.80
2023-05-19T08:56:25.406Z,2.00
2023-05-19T08:58:54.929Z,1.90
2023-05-19T09:01:24.526Z,1.70
2023-05-19T09:03:53.888Z,2.00
2023-05-19T09:06:23.212Z,2.00
2023-05-19T09:08:52.120Z,2.10
2023-05-19T09:11:23.452Z,1.50
2023-05-19T09:13:52.775Z,1.60
2023-05-19T09:16:23.660Z,2.00
2023-05-19T09:18:57.590Z,1.90
2023-05-19T09:21:33.680Z,1.70
2023-05-19T09:24:06.818Z,1.90
2023-05-19T09:26:39.598Z,2.20
2023-05-19T09:29:13.362Z,2.10
2023-05-19T09:31:54.806Z,2.10
2023-05-19T09:34:25.400Z,2.20
2023-05-19T09:36:56.394Z,2.40
2023-05-19T09:39:26.575Z,2.30
2023-05-19T09:41:59.014Z,2.50
2023-05-19T09:44:31.980Z,2.30
2023-05-19T09:47:02.338Z,2.30
2023-05-19T09:49:33.183Z,2.40
2023-05-19T09:52:06.674Z,2.70
2023-05-19T09:54:37.553Z,2.30
2023-05-19T09:57:08.819Z,2.70
2023-05-19T09:59:39.491Z,2.70
2023-05-19T10:02:15.315Z,3.20
2023-05-19T10:04:44.865Z,3.00
2023-05-19T10:07:15.563Z,3.00
2023-05-19T10:09:44.732Z,3.40
2023-05-19T10:12:14.030Z,3.50
2023-05-19T10:14:43.136Z,3.50
2023-05-19T10:17:12.937Z,3.30
2023-05-19T10:19:42.229Z,3.50
2023-05-19T10:22:11.548Z,3.40
2023-05-19T10:24:40.641Z,3.60
2023-05-19T10:27:15.583Z,3.40
2023-05-19T10:29:50.083Z,3.10
2023-05-19T10:32:24.478Z,3.50
2023-05-19T10:35:13.268Z,3.70
2023-05-19T10:37:50.752Z,3.60
2023-05-19T10:40:23.653Z,3.60
2023-05-19T10:43:36.372Z,3.60
2023-05-19T10:46:06.830Z,3.70
2023-05-19T10:48:38.855Z,3.50
2023-05-19T10:51:12.488Z,3.70
2023-05-19T10:53:46.874Z,3.60
2023-05-19T10:56:34.464Z,4.10
2023-05-19T10:59:04.429Z,4.30
2023-05-19T11:01:35.394Z,4.60
2023-05-19T11:04:13.067Z,4.80
2023-05-19T11:06:52.170Z,4.30
2023-05-19T11:09:34.077Z,4.30
2023-05-19T11:12:08.014Z,4.20
2023-05-19T11:14:37.085Z,4.60
2023-05-19T11:17:14.883Z,4.60
2023-05-19T11:19:54.375Z,4.30
2023-05-19T11:22:27.741Z,5.60
2023-05-19T11:24:57.021Z,5.90
2023-05-19T11:27:33.964Z,5.70
2023-05-19T11:30:15.377Z,5.50
2023-05-19T11:32:45.136Z,5.70
2023-05-19T11:35:15.125Z,5.70
2023-05-19T11:37:43.908Z,5.70
2023-05-19T11:40:14.176Z,5.80
2023-05-19T11:42:43.306Z,5.50
2023-05-19T11:45:12.599Z,5.50
2023-05-19T11:48:00.256Z,5.90
2023-05-19T11:50:33.792Z,5.50
2023-05-19T11:53:02.871Z,4.20
2023-05-19T11:55:33.060Z,5.00
2023-05-19T11:58:04.695Z,4.90
2023-05-19T12:00:41.069Z,4.90
2023-05-19T12:03:10.684Z,5.20
2023-05-19T12:05:45.081Z,5.70
2023-05-19T12:08:14.314Z,4.40
2023-05-19T12:10:43.909Z,5.40
2023-05-19T12:13:13.327Z,5.30
2023-05-19T12:15:43.135Z,4.10
2023-05-19T12:18:12.869Z,4.20
2023-05-19T12:20:41.864Z,4.00
2023-05-19T12:23:11.050Z,4.50
2023-05-19T12:25:40.237Z,4.10
2023-05-19T12:28:09.434Z,4.30
2023-05-19T12:30:39.037Z,4.70
2023-05-19T12:33:10.528Z,5.50
2023-05-19T12:35:39.694Z,4.90
2023-05-19T12:38:11.161Z,5.60
2023-05-19T12:40:41.440Z,6.10
2023-05-19T12:43:21.546Z,6.20
2023-05-19T12:45:50.543Z,5.80
2023-05-19T12:48:23.133Z,6.70
2023-05-19T12:50:56.172Z,5.80
2023-05-19T12:53:27.149Z,5.90
2023-05-19T12:55:56.630Z,6.20
2023-05-19T12:58:27.122Z,5.50
2023-05-19T13:01:01.001Z,6.40
2023-05-19T13:03:30.979Z,6.20
2023-05-19T13:06:00.661Z,6.30
2023-05-19T13:08:31.088Z,6.50
2023-05-19T13:11:00.193Z,7.30
2023-05-19T13:13:29.280Z,8.10
2023-05-19T13:15:58.498Z,7.40
2023-05-19T13:18:28.194Z,8.80
2023-05-19T13:20:58.985Z,8.70
2023-05-19T13:23:29.277Z,7.50
2023-05-19T13:25:58.156Z,7.90
2023-05-19T13:28:27.295Z,8.40
2023-05-19T13:30:56.650Z,8.00
2023-05-19T13:33:25.724Z,8.20
2023-05-19T13:35:54.792Z,8.00
2023-05-19T13:38:24.465Z,8.80
2023-05-19T13:40:55.375Z,8.30
2023-05-19T13:43:24.353Z,8.50
2023-05-19T13:45:53.520Z,8.10
2023-05-19T13:48:22.702Z,8.20
2023-05-19T13:50:55.019Z,8.50
2023-05-19T13:53:24.341Z,8.40
2023-05-19T13:55:56.011Z,8.80
2023-05-19T13:58:25.285Z,8.20
2023-05-19T14:00:57.585Z,8.40
2023-05-19T14:03:27.554Z,8.40
2023-05-19T14:05:56.701Z,8.00
2023-05-19T14:08:26.965Z,8.30
2023-05-19T14:10:56.603Z,8.00
2023-05-19T14:13:33.035Z,8.20
2023-05-19T14:16:05.091Z,8.10
2023-05-19T14:18:34.947Z,8.00
2023-05-19T14:21:04.028Z,8.90
2023-05-19T14:23:33.226Z,8.10
2023-05-19T14:26:02.234Z,8.70
2023-05-19T14:28:31.322Z,8.30
2023-05-19T14:31:02.360Z,7.80
2023-05-19T14:33:35.461Z,7.60
2023-05-19T14:36:11.702Z,8.40
2023-05-19T14:38:44.221Z,8.00
2023-05-19T14:41:15.324Z,8.00
2023-05-19T14:43:45.203Z,8.80
2023-05-19T14:46:15.753Z,9.30
2023-05-19T14:48:44.760Z,7.80
2023-05-19T14:51:14.271Z,9.00
2023-05-19T14:53:43.569Z,9.10
2023-05-19T14:56:12.884Z,9.20
2023-05-19T14:58:42.573Z,9.10
2023-05-19T15:01:12.206Z,9.00
2023-05-19T15:03:41.851Z,9.00
2023-05-19T15:06:11.917Z,8.20
2023-05-19T15:08:42.338Z,9.60
2023-05-19T15:11:11.737Z,8.80
2023-05-19T15:13:41.141Z,9.30
2023-05-19T15:16:17.042Z,11.00
2023-05-19T15:18:47.321Z,8.90
2023-05-19T15:21:16.525Z,10.50
2023-05-19T15:23:46.274Z,9.30
2023-05-19T15:26:15.954Z,9.30
2023-05-19T15:28:45.242Z,9.50
2023-05-19T15:31:14.346Z,10.50
2023-05-19T15:33:43.774Z,10.70
2023-05-19T15:36:16.924Z,9.90
2023-05-19T15:38:46.030Z,10.50
2023-05-19T15:41:15.337Z,10.00
2023-05-19T15:43:48.548Z,10.30
2023-05-19T15:46:19.997Z,10.00
2023-05-19T15:48:48.882Z,10.20
2023-05-19T15:51:17.944Z,8.60
2023-05-19T15:53:48.241Z,10.10
2023-05-19T15:56:19.906Z,9.80
2023-05-19T15:58:56.509Z,10.30
2023-05-19T16:01:27.192Z,10.60
2023-05-19T16:03:56.532Z,10.30
2023-05-19T16:06:28.105Z,9.90
2023-05-19T16:08:59.716Z,10.50
2023-05-19T16:11:29.859Z,10.80
2023-05-19T16:14:00.525Z,10.70
2023-05-19T16:16:30.540Z,11.10
2023-05-19T16:19:00.123Z,9.60
2023-05-19T16:21:29.728Z,10.80
2023-05-19T16:23:58.723Z,10.80
2023-05-19T16:26:30.196Z,9.90
2023-05-19T16:28:59.185Z,9.10
2023-05-19T16:31:29.554Z,10.20
2023-05-19T16:34:00.226Z,9.50
2023-05-19T16:36:30.191Z,10.20
2023-05-19T16:38:59.201Z,8.80
2023-05-19T16:41:28.343Z,9.20
2023-05-19T16:43:58.482Z,8.90
2023-05-19T16:46:29.212Z,10.10
2023-05-19T16:49:01.834Z,10.20
2023-05-19T16:51:31.784Z,9.80
2023-05-19T16:54:01.280Z,10.20
2023-05-19T16:56:30.692Z,9.40
2023-05-19T16:59:00.403Z,9.30
2023-05-19T17:01:29.913Z,8.90
2023-05-19T17:04:00.034Z,9.30
2023-05-19T17:06:30.263Z,9.20
2023-05-19T17:08:59.889Z,9.40
2023-05-19T17:11:29.493Z,10.10
2023-05-19T17:13:59.356Z,8.80
2023-05-19T17:16:28.799Z,10.00
2023-05-19T17:18:58.107Z,10.30
2023-05-19T17:21:27.998Z,10.00
2023-05-19T17:23:57.673Z,9.90
2023-05-19T17:26:27.515Z,9.50
2023-05-19T17:28:57.530Z,10.40
2023-05-19T17:31:28.253Z,9.60
2023-05-19T17:33:58.616Z,10.00
2023-05-19T17:36:28.212Z,9.80
2023-05-19T17:38:57.788Z,10.10
2023-05-19T17:41:27.302Z,10.10
2023-05-19T17:43:57.617Z,9.80
2023-05-19T17:46:27.365Z,9.10
2023-05-19T17:48:57.505Z,9.30
2023-05-19T17:51:28.068Z,9.60
2023-05-19T17:53:59.418Z,10.50
2023-05-19T17:56:32.553Z,10.00
2023-05-19T17:59:02.386Z,10.00
2023-05-19T18:01:35.570Z,9.80
2023-05-19T18:04:07.468Z,10.10
2023-05-19T18:06:40.123Z,9.80
2023-05-19T18:09:14.070Z,9.80
2023-05-19T18:11:43.548Z,10.40
2023-05-19T18:14:13.845Z,9.70
2023-05-19T18:16:44.182Z,10.00
2023-05-19T18:19:14.082Z,10.40
2023-05-19T18:21:43.335Z,9.30
2023-05-19T18:24:12.748Z,9.40
2023-05-19T18:26:42.920Z,9.50
2023-05-19T18:29:12.668Z,10.10
2023-05-19T18:31:42.816Z,9.50
2023-05-19T18:34:14.497Z,9.80
2023-05-19T18:36:44.275Z,9.80
2023-05-19T18:39:15.568Z,9.90
2023-05-19T18:41:48.964Z,10.10
2023-05-19T18:44:18.639Z,9.90
2023-05-19T18:46:47.818Z,10.90
2023-05-19T18:49:18.170Z,10.50
2023-05-19T18:51:49.077Z,10.10
2023-05-19T18:54:20.186Z,11.00
2023-05-19T18:56:50.886Z,10.30
2023-05-19T18:59:20.349Z,11.60
2023-05-19T19:01:49.985Z,11.30
2023-05-19T19:04:19.680Z,11.20
2023-05-19T19:06:50.703Z,11.00
2023-05-19T19:09:23.503Z,11.00
2023-05-19T19:11:52.910Z,11.50
2023-05-19T19:14:23.123Z,12.50
2023-05-19T19:16:54.870Z,12.40
2023-05-19T19:19:28.820Z,11.70
2023-05-19T19:22:03.168Z,11.80
2023-05-19T19:24:33.182Z,10.60
2023-05-19T19:27:03.552Z,11.30
2023-05-19T19:29:33.042Z,11.20
2023-05-19T19:32:02.839Z,11.60
2023-05-19T19:34:32.913Z,12.10
2023-05-19T19:37:03.272Z,11.90
2023-05-19T19:39:33.130Z,11.20
2023-05-19T19:42:02.532Z,11.60
2023-05-19T19:44:31.832Z,11.40
2023-05-19T19:47:01.218Z,11.50
2023-05-19T19:49:30.534Z,13.50
2023-05-19T19:52:00.460Z,12.00
2023-05-19T19:54:29.631Z,13.00
2023-05-19T19:56:59.990Z,11.00
2023-05-19T19:59:30.586Z,11.50
2023-05-19T20:01:59.811Z,11.40
2023-05-19T20:04:29.721Z,10.90
2023-05-19T20:06:59.114Z,11.40
2023-05-19T20:09:29.574Z,10.80
2023-05-19T20:11:58.626Z,11.20
2023-05-19T20:14:28.334Z,11.80
2023-05-19T20:17:02.391Z,12.40
2023-05-19T20:19:37.748Z,11.40
2023-05-19T20:22:07.357Z,10.70
2023-05-19T20:24:37.119Z,11.60
2023-05-19T20:27:07.948Z,11.60
2023-05-19T20:29:37.780Z,11.30
2023-05-19T20:32:07.194Z,11.50
2023-05-19T20:34:36.711Z,11.90
2023-05-19T20:37:06.576Z,11.00
2023-05-19T20:39:35.814Z,11.10
2023-05-19T20:42:05.723Z,12.10
2023-05-19T20:44:34.795Z,12.60
2023-05-19T20:47:04.719Z,12.20
2023-05-19T20:49:33.915Z,12.20
2023-05-19T20:52:03.328Z,13.00
2023-05-19T20:54:32.718Z,12.30
2023-05-19T20:57:06.848Z,14.10
2023-05-19T20:59:36.865Z,12.00
2023-05-19T21:02:08.069Z,11.50
2023-05-19T21:04:37.112Z,12.00
2023-05-19T21:07:06.670Z,13.30
2023-05-19T21:09:35.898Z,14.00
2023-05-19T21:12:05.397Z,11.80
2023-05-19T21:14:34.497Z,12.30
2023-05-19T21:17:03.757Z,8.30
2023-05-19T21:19:33.046Z,13.30
2023-05-19T21:22:02.578Z,15.70
2023-05-19T21:24:32.097Z,13.30
2023-05-19T21:27:02.337Z,13.50
2023-05-19T21:29:31.516Z,12.30
2023-05-19T21:32:01.677Z,12.60
2023-05-19T21:34:30.742Z,13.10
2023-05-19T21:37:00.472Z,12.80
2023-05-19T21:39:30.361Z,12.80
2023-05-19T21:42:00.111Z,11.90
2023-05-19T21:44:31.721Z,11.10
2023-05-19T21:47:02.001Z,12.30
2023-05-19T21:49:31.757Z,12.80
2023-05-19T21:52:01.356Z,13.00
2023-05-19T21:54:30.657Z,13.10
2023-05-19T21:56:59.997Z,12.20
2023-05-19T21:59:29.356Z,12.60
2023-05-19T22:01:58.879Z,12.90
2023-05-19T22:04:31.945Z,12.60
2023-05-19T22:07:01.285Z,12.20
2023-05-19T22:09:30.524Z,12.00
2023-05-19T22:11:59.756Z,12.80
2023-05-19T22:14:29.131Z,12.70
2023-05-19T22:16:58.257Z,13.00
2023-05-19T22:19:27.373Z,13.10
2023-05-19T22:22:09.798Z,12.60
2023-05-19T22:24:42.774Z,11.70
2023-05-19T22:27:12.242Z,13.20
2023-05-19T22:29:41.238Z,14.20
2023-05-19T22:32:12.596Z,12.40
2023-05-19T22:34:42.652Z,12.30
2023-05-19T22:37:11.804Z,11.80
2023-05-19T22:39:40.693Z,12.60
2023-05-19T22:42:09.903Z,12.10
2023-05-19T22:44:38.977Z,11.80
2023-05-19T22:47:13.918Z,13.30
2023-05-19T22:49:43.422Z,12.50
2023-05-19T22:52:13.730Z,11.50
2023-05-19T22:54:44.003Z,11.10
2023-05-19T22:57:13.275Z,11.70
2023-05-19T22:59:42.871Z,12.00
2023-05-19T23:02:11.969Z,12.50
2023-05-19T23:04:40.853Z,12.10
2023-05-19T23:07:10.546Z,13.10
2023-05-19T23:09:39.971Z,12.00
2023-05-19T23:12:08.939Z,11.30
2023-05-19T23:14:38.350Z,12.70
2023-05-19T23:17:07.255Z,12.00
2023-05-19T23:19:37.467Z,11.90
2023-05-19T23:22:06.165Z,12.10
2023-05-19T23:24:35.238Z,12.50
2023-05-19T23:27:04.061Z,11.50
2023-05-19T23:29:33.031Z,11.50
2023-05-19T23:32:01.834Z,12.70
2023-05-19T23:34:32.237Z,12.40
2023-05-19T23:37:01.130Z,11.70
2023-05-19T23:39:29.832Z,12.90
2023-05-19T23:41:58.817Z,11.50
2023-05-19T23:44:28.021Z,12.00
2023-05-19T23:46:56.828Z,12.90
2023-05-19T23:49:26.940Z,12.40
2023-05-19T23:51:56.043Z,12.00
2023-05-19T23:54:24.821Z,12.30
2023-05-19T23:56:53.801Z,12.40
2023-05-19T23:59:22.909Z,12.50
